Fox, OK (73435)

3:00 PM CDT on August 29, 2016 (GMT -0500)
Carter County Dist 2 | | Change Station

Elev 933 ft 34.25 °N, 97.50 °W | Updated 9 minutes ago

Clear
Clear
90.0 °F
Feels Like 95 °F
N
0.0
Wind Variable Wind from SSE
Gusts 6.0 mph

Today
High -- | Low -- °F
--% Chance of Precip.
Yesterday
High -- | Low -- °F
Precip. -- in
Pressure 30.04 in
Visibility 10.0 miles
Clouds Clear
Heat Index 95 °F
Dew Point 69 °F
Humidity 50%
Rainfall 0.00 in
Snow Depth Not available.
7:01 AM 7:59 PM
Waning Crescent, 7% visible
METAR K1F0 291955Z AUTO 07007KT 10SM CLR 32/17 A3004 RMK AO2 LTG DSNT S
Pressure 30.04 in
Visibility 10.0 miles
Clouds Clear
Heat Index 95 °F
Dew Point 69 °F
Humidity 50%
Rainfall 0.00 in
Snow Depth Not available.
7:01 AM 7:59 PM
Waning Crescent, 7% visible
METAR K1F0 291955Z AUTO 07007KT 10SM CLR 32/17 A3004 RMK AO2 LTG DSNT S

10-Day Weather Forecast

Almanac

Astronomy

Aug. 29, 2016 Rise Set
Actual Time
Civil Twilight
Nautical Twilight
Astronomical Twilight
Moon
Length of Visible Light
Length of Day
Tomorrow will be .
, % of the Moon is Illuminated

Today's Extremes

State Highs State Lows

Community

WunderPhotos

Upload Photos

1,935,642 photos uploaded!

WunderBlog® & News

Nearby

Air Quality

  Air Quality AQ Index Pollutant
Not available.

Snow Depth

Station Depth Elevation

Earthquake Activity

City Distance Mag. Time & Date
Minimum magnitude displayed is 2.5.

Coastal Water Temperatures

Place Temperature

Stations

Nearby Weather Stations

Station Location Temp. Windchill Dew Point Humidity Wind Precip. Elev Updated Type
                   

Watches & Warnings

There are currently no watches in effect.